Catanduanes Radar Site, Philippines
Current Conditions -  °F | °C
As of 5:00 PM on Friday 24 Oct 2014 (Local Time) from RPLL Reporting Station
Broken Clouds Broken Clouds  
Wind Chill: 84°   Ceiling: 9000
Heat Index: 91°   Visibility: 6mi
Dew Point: 73°   Wind: 7mph
Humidity: 70%   Direction: 40°NE
Pressure: 29.83"   Gusts: NA
Location:  13.98°N, 124.32°E
Report Text: RPLL 240900Z 04006KT 360V060 9999 FEW023CB SCT025 BKN090 29/23 Q1010 NOSIG RMK A2983 CB W
Loading
Personal Weather Stations






























Interactive Weather Map
Tropical Storm Tracking
New forecast layout! Learn more

10-Day Weather Forecast

Advertisements
Track Severe Weather on mobile